sensor_id;sensor_type;location;lat;lon;timestamp;P1;durP1;ratioP1;P2;durP2;ratioP2
15474;SDS011;7839;50.462;9.678;2022-09-13T00:02:12;1.33;;;1.00;;
15474;SDS011;7839;50.462;9.678;2022-09-13T00:08:52;0.80;;;0.80;;
15474;SDS011;7839;50.462;9.678;2022-09-13T00:15:33;0.80;;;0.80;;
15474;SDS011;7839;50.462;9.678;2022-09-13T00:22:14;0.80;;;0.80;;
15474;SDS011;7839;50.462;9.678;2022-09-13T00:28:55;0.80;;;0.80;;
15474;SDS011;7839;50.462;9.678;2022-09-13T00:35:35;0.85;;;0.85;;
15474;SDS011;7839;50.462;9.678;2022-09-13T00:42:16;0.70;;;0.70;;
15474;SDS011;7839;50.462;9.678;2022-09-13T00:48:59;0.90;;;0.90;;
15474;SDS011;7839;50.462;9.678;2022-09-13T00:56:14;0.90;;;0.90;;
15474;SDS011;7839;50.462;9.678;2022-09-13T01:02:50;0.68;;;0.68;;
15474;SDS011;7839;50.462;9.678;2022-09-13T01:09:35;0.90;;;0.90;;
15474;SDS011;7839;50.462;9.678;2022-09-13T01:16:17;0.60;;;0.60;;
15474;SDS011;7839;50.462;9.678;2022-09-13T01:50:46;0.70;;;0.70;;
15474;SDS011;7839;50.462;9.678;2022-09-13T02:04:10;0.68;;;0.68;;
15474;SDS011;7839;50.462;9.678;2022-09-13T02:10:54;0.60;;;0.60;;
15474;SDS011;7839;50.462;9.678;2022-09-13T02:17:36;0.60;;;0.60;;
15474;SDS011;7839;50.462;9.678;2022-09-13T02:24:18;0.60;;;0.60;;
15474;SDS011;7839;50.462;9.678;2022-09-13T02:31:00;0.73;;;0.73;;
15474;SDS011;7839;50.462;9.678;2022-09-13T02:37:42;1.15;;;0.90;;
15474;SDS011;7839;50.462;9.678;2022-09-13T02:51:08;0.80;;;0.80;;
15474;SDS011;7839;50.462;9.678;2022-09-13T03:04:34;0.88;;;0.88;;
15474;SDS011;7839;50.462;9.678;2022-09-13T03:18:22;1.00;;;0.90;;
15474;SDS011;7839;50.462;9.678;2022-09-13T03:32:15;1.02;;;0.88;;
15474;SDS011;7839;50.462;9.678;2022-09-13T03:39:02;0.75;;;0.75;;
15474;SDS011;7839;50.462;9.678;2022-09-13T03:45:53;0.70;;;0.70;;
15474;SDS011;7839;50.462;9.678;2022-09-13T03:52:34;0.70;;;0.70;;
15474;SDS011;7839;50.462;9.678;2022-09-13T03:59:15;0.70;;;0.70;;
15474;SDS011;7839;50.462;9.678;2022-09-13T04:05:55;0.88;;;0.88;;
15474;SDS011;7839;50.462;9.678;2022-09-13T04:12:35;2.10;;;0.80;;
15474;SDS011;7839;50.462;9.678;2022-09-13T04:19:15;0.77;;;0.77;;
15474;SDS011;7839;50.462;9.678;2022-09-13T04:26:02;0.80;;;0.80;;
15474;SDS011;7839;50.462;9.678;2022-09-13T04:32:43;0.75;;;0.75;;
15474;SDS011;7839;50.462;9.678;2022-09-13T04:39:23;0.70;;;0.70;;
15474;SDS011;7839;50.462;9.678;2022-09-13T04:46:04;0.65;;;0.65;;
15474;SDS011;7839;50.462;9.678;2022-09-13T04:52:44;0.80;;;0.80;;
15474;SDS011;7839;50.462;9.678;2022-09-13T04:59:24;0.80;;;0.80;;
15474;SDS011;7839;50.462;9.678;2022-09-13T05:06:05;0.88;;;0.88;;
15474;SDS011;7839;50.462;9.678;2022-09-13T05:12:46;0.87;;;0.87;;
15474;SDS011;7839;50.462;9.678;2022-09-13T05:19:26;0.90;;;0.90;;
15474;SDS011;7839;50.462;9.678;2022-09-13T05:26:06;0.80;;;0.80;;
15474;SDS011;7839;50.462;9.678;2022-09-13T05:32:47;1.10;;;1.00;;
15474;SDS011;7839;50.462;9.678;2022-09-13T05:39:27;0.80;;;0.80;;
15474;SDS011;7839;50.462;9.678;2022-09-13T05:46:11;0.90;;;0.90;;
15474;SDS011;7839;50.462;9.678;2022-09-13T05:52:52;0.90;;;0.90;;
15474;SDS011;7839;50.462;9.678;2022-09-13T05:59:32;0.90;;;0.90;;
15474;SDS011;7839;50.462;9.678;2022-09-13T06:06:12;0.90;;;0.90;;
15474;SDS011;7839;50.462;9.678;2022-09-13T06:12:52;1.02;;;0.77;;
15474;SDS011;7839;50.462;9.678;2022-09-13T06:19:32;0.80;;;0.80;;
15474;SDS011;7839;50.462;9.678;2022-09-13T06:26:14;0.70;;;0.70;;
15474;SDS011;7839;50.462;9.678;2022-09-13T06:32:57;1.10;;;1.00;;
15474;SDS011;7839;50.462;9.678;2022-09-13T06:39:37;1.00;;;0.90;;
15474;SDS011;7839;50.462;9.678;2022-09-13T06:46:18;1.20;;;1.10;;
15474;SDS011;7839;50.462;9.678;2022-09-13T06:52:59;0.70;;;0.70;;
15474;SDS011;7839;50.462;9.678;2022-09-13T06:59:39;2.90;;;0.93;;
15474;SDS011;7839;50.462;9.678;2022-09-13T07:06:20;0.80;;;0.80;;
15474;SDS011;7839;50.462;9.678;2022-09-13T07:13:01;0.80;;;0.80;;
15474;SDS011;7839;50.462;9.678;2022-09-13T07:19:41;0.80;;;0.80;;
15474;SDS011;7839;50.462;9.678;2022-09-13T07:26:21;0.90;;;0.90;;
15474;SDS011;7839;50.462;9.678;2022-09-13T07:33:02;1.05;;;0.98;;
15474;SDS011;7839;50.462;9.678;2022-09-13T07:39:42;0.95;;;0.95;;
15474;SDS011;7839;50.462;9.678;2022-09-13T07:46:23;0.95;;;0.95;;
15474;SDS011;7839;50.462;9.678;2022-09-13T07:53:03;1.07;;;0.97;;
15474;SDS011;7839;50.462;9.678;2022-09-13T07:59:45;0.95;;;0.95;;
15474;SDS011;7839;50.462;9.678;2022-09-13T08:06:26;2.03;;;1.13;;
15474;SDS011;7839;50.462;9.678;2022-09-13T08:13:06;1.83;;;0.95;;
15474;SDS011;7839;50.462;9.678;2022-09-13T08:19:46;0.85;;;0.80;;
15474;SDS011;7839;50.462;9.678;2022-09-13T08:26:27;1.20;;;1.10;;
15474;SDS011;7839;50.462;9.678;2022-09-13T08:33:08;1.40;;;1.30;;
15474;SDS011;7839;50.462;9.678;2022-09-13T08:39:48;1.38;;;1.27;;
15474;SDS011;7839;50.462;9.678;2022-09-13T08:46:32;5.63;;;5.15;;
15474;SDS011;7839;50.462;9.678;2022-09-13T08:53:16;1.50;;;1.23;;
15474;SDS011;7839;50.462;9.678;2022-09-13T09:06:37;1.67;;;1.57;;
15474;SDS011;7839;50.462;9.678;2022-09-13T09:26:56;1.60;;;1.50;;
15474;SDS011;7839;50.462;9.678;2022-09-13T09:40:36;2.33;;;2.13;;
15474;SDS011;7839;50.462;9.678;2022-09-13T09:47:18;2.00;;;1.90;;
15474;SDS011;7839;50.462;9.678;2022-09-13T09:54:00;2.10;;;1.95;;
15474;SDS011;7839;50.462;9.678;2022-09-13T10:00:54;2.13;;;1.92;;
15474;SDS011;7839;50.462;9.678;2022-09-13T10:07:35;2.30;;;2.20;;
15474;SDS011;7839;50.462;9.678;2022-09-13T10:27:58;2.58;;;2.38;;
15474;SDS011;7839;50.462;9.678;2022-09-13T10:34:40;2.60;;;2.40;;
15474;SDS011;7839;50.462;9.678;2022-09-13T10:41:22;2.30;;;2.20;;
15474;SDS011;7839;50.462;9.678;2022-09-13T10:48:13;2.60;;;2.40;;
15474;SDS011;7839;50.462;9.678;2022-09-13T10:54:54;2.38;;;2.20;;
15474;SDS011;7839;50.462;9.678;2022-09-13T11:02:19;2.55;;;2.35;;
15474;SDS011;7839;50.462;9.678;2022-09-13T11:22:07;2.78;;;2.50;;
15474;SDS011;7839;50.462;9.678;2022-09-13T11:29:06;2.33;;;2.22;;
15474;SDS011;7839;50.462;9.678;2022-09-13T11:49:36;3.38;;;2.42;;
15474;SDS011;7839;50.462;9.678;2022-09-13T11:56:25;2.88;;;2.55;;
15474;SDS011;7839;50.462;9.678;2022-09-13T12:09:57;2.22;;;2.13;;
15474;SDS011;7839;50.462;9.678;2022-09-13T12:16:52;3.63;;;2.25;;
15474;SDS011;7839;50.462;9.678;2022-09-13T12:23:38;3.67;;;2.30;;
15474;SDS011;7839;50.462;9.678;2022-09-13T12:30:23;2.45;;;2.28;;
15474;SDS011;7839;50.462;9.678;2022-09-13T12:50:54;2.45;;;2.35;;
15474;SDS011;7839;50.462;9.678;2022-09-13T12:57:40;2.20;;;2.00;;
15474;SDS011;7839;50.462;9.678;2022-09-13T13:11:04;2.15;;;1.98;;
15474;SDS011;7839;50.462;9.678;2022-09-13T13:17:46;2.30;;;2.20;;
15474;SDS011;7839;50.462;9.678;2022-09-13T13:44:55;2.67;;;1.75;;
15474;SDS011;7839;50.462;9.678;2022-09-13T13:51:36;1.67;;;1.58;;
15474;SDS011;7839;50.462;9.678;2022-09-13T14:26:08;1.63;;;1.52;;
15474;SDS011;7839;50.462;9.678;2022-09-13T14:32:51;2.15;;;1.95;;
15474;SDS011;7839;50.462;9.678;2022-09-13T14:39:31;1.65;;;1.55;;
15474;SDS011;7839;50.462;9.678;2022-09-13T14:53:04;1.52;;;1.42;;
15474;SDS011;7839;50.462;9.678;2022-09-13T14:59:46;2.08;;;1.80;;
15474;SDS011;7839;50.462;9.678;2022-09-13T15:06:32;1.45;;;1.40;;
15474;SDS011;7839;50.462;9.678;2022-09-13T15:13:13;1.50;;;1.40;;
15474;SDS011;7839;50.462;9.678;2022-09-13T15:20:03;1.60;;;1.50;;
15474;SDS011;7839;50.462;9.678;2022-09-13T15:26:44;1.80;;;1.70;;
15474;SDS011;7839;50.462;9.678;2022-09-13T15:33:29;2.25;;;1.48;;
15474;SDS011;7839;50.462;9.678;2022-09-13T15:40:19;2.72;;;1.33;;
15474;SDS011;7839;50.462;9.678;2022-09-13T15:47:00;3.97;;;1.23;;
15474;SDS011;7839;50.462;9.678;2022-09-13T15:53:44;1.70;;;1.60;;
15474;SDS011;7839;50.462;9.678;2022-09-13T16:00:25;1.50;;;1.40;;
15474;SDS011;7839;50.462;9.678;2022-09-13T16:07:07;1.60;;;1.50;;
15474;SDS011;7839;50.462;9.678;2022-09-13T16:13:47;1.73;;;1.50;;
15474;SDS011;7839;50.462;9.678;2022-09-13T16:20:27;1.55;;;1.45;;
15474;SDS011;7839;50.462;9.678;2022-09-13T16:27:08;1.58;;;1.48;;
15474;SDS011;7839;50.462;9.678;2022-09-13T16:33:49;1.65;;;1.55;;
15474;SDS011;7839;50.462;9.678;2022-09-13T16:40:29;1.48;;;1.40;;
15474;SDS011;7839;50.462;9.678;2022-09-13T16:47:10;1.38;;;1.38;;
15474;SDS011;7839;50.462;9.678;2022-09-13T16:53:51;1.60;;;1.50;;
15474;SDS011;7839;50.462;9.678;2022-09-13T17:00:31;1.45;;;1.38;;
15474;SDS011;7839;50.462;9.678;2022-09-13T17:07:12;2.05;;;1.95;;
15474;SDS011;7839;50.462;9.678;2022-09-13T17:13:53;1.60;;;1.50;;
15474;SDS011;7839;50.462;9.678;2022-09-13T17:20:33;1.23;;;1.20;;
15474;SDS011;7839;50.462;9.678;2022-09-13T17:27:14;1.40;;;1.40;;
15474;SDS011;7839;50.462;9.678;2022-09-13T17:33:54;1.33;;;1.23;;
15474;SDS011;7839;50.462;9.678;2022-09-13T17:40:34;1.35;;;1.35;;
15474;SDS011;7839;50.462;9.678;2022-09-13T17:47:14;1.75;;;1.35;;
15474;SDS011;7839;50.462;9.678;2022-09-13T17:53:56;1.10;;;1.10;;
15474;SDS011;7839;50.462;9.678;2022-09-13T18:00:37;1.23;;;1.23;;
15474;SDS011;7839;50.462;9.678;2022-09-13T18:07:22;1.40;;;1.30;;
15474;SDS011;7839;50.462;9.678;2022-09-13T18:14:02;1.40;;;1.40;;
15474;SDS011;7839;50.462;9.678;2022-09-13T18:20:44;1.50;;;1.40;;
15474;SDS011;7839;50.462;9.678;2022-09-13T18:27:25;1.48;;;1.38;;
15474;SDS011;7839;50.462;9.678;2022-09-13T18:34:07;1.55;;;1.40;;
15474;SDS011;7839;50.462;9.678;2022-09-13T18:40:58;2.80;;;1.40;;
15474;SDS011;7839;50.462;9.678;2022-09-13T18:47:38;2.78;;;1.50;;
15474;SDS011;7839;50.462;9.678;2022-09-13T18:54:19;1.65;;;1.48;;
15474;SDS011;7839;50.462;9.678;2022-09-13T19:01:00;1.73;;;1.63;;
15474;SDS011;7839;50.462;9.678;2022-09-13T19:07:40;1.77;;;1.30;;
15474;SDS011;7839;50.462;9.678;2022-09-13T19:14:21;1.30;;;1.20;;
15474;SDS011;7839;50.462;9.678;2022-09-13T19:21:03;1.60;;;1.50;;
15474;SDS011;7839;50.462;9.678;2022-09-13T19:27:43;1.42;;;1.35;;
15474;SDS011;7839;50.462;9.678;2022-09-13T19:34:23;1.77;;;1.50;;
15474;SDS011;7839;50.462;9.678;2022-09-13T19:41:05;1.42;;;1.27;;
15474;SDS011;7839;50.462;9.678;2022-09-13T19:47:46;2.72;;;1.40;;
15474;SDS011;7839;50.462;9.678;2022-09-13T19:54:26;1.40;;;1.30;;
15474;SDS011;7839;50.462;9.678;2022-09-13T20:01:08;1.33;;;1.23;;
15474;SDS011;7839;50.462;9.678;2022-09-13T20:07:48;2.13;;;1.55;;
15474;SDS011;7839;50.462;9.678;2022-09-13T20:14:29;1.52;;;1.42;;
15474;SDS011;7839;50.462;9.678;2022-09-13T20:21:10;1.70;;;1.60;;
15474;SDS011;7839;50.462;9.678;2022-09-13T20:27:52;1.70;;;1.60;;
15474;SDS011;7839;50.462;9.678;2022-09-13T20:34:32;2.08;;;1.88;;
15474;SDS011;7839;50.462;9.678;2022-09-13T20:41:15;1.70;;;1.58;;
15474;SDS011;7839;50.462;9.678;2022-09-13T20:47:56;2.15;;;1.80;;
15474;SDS011;7839;50.462;9.678;2022-09-13T20:54:36;1.70;;;1.60;;
15474;SDS011;7839;50.462;9.678;2022-09-13T21:01:17;1.58;;;1.48;;
15474;SDS011;7839;50.462;9.678;2022-09-13T21:07:58;2.28;;;1.83;;
15474;SDS011;7839;50.462;9.678;2022-09-13T21:14:57;1.83;;;1.73;;
15474;SDS011;7839;50.462;9.678;2022-09-13T21:21:39;1.50;;;1.40;;
15474;SDS011;7839;50.462;9.678;2022-09-13T21:28:20;2.15;;;1.60;;
15474;SDS011;7839;50.462;9.678;2022-09-13T21:35:01;1.98;;;1.85;;
15474;SDS011;7839;50.462;9.678;2022-09-13T21:41:41;1.88;;;1.75;;
15474;SDS011;7839;50.462;9.678;2022-09-13T21:48:22;2.28;;;1.90;;
15474;SDS011;7839;50.462;9.678;2022-09-13T21:55:02;2.15;;;1.90;;
15474;SDS011;7839;50.462;9.678;2022-09-13T22:01:43;2.53;;;2.03;;
15474;SDS011;7839;50.462;9.678;2022-09-13T22:08:25;2.22;;;1.75;;
15474;SDS011;7839;50.462;9.678;2022-09-13T22:15:06;1.88;;;1.60;;
15474;SDS011;7839;50.462;9.678;2022-09-13T22:21:47;2.00;;;1.83;;
15474;SDS011;7839;50.462;9.678;2022-09-13T22:28:28;1.77;;;1.65;;
15474;SDS011;7839;50.462;9.678;2022-09-13T22:35:08;1.70;;;1.60;;
15474;SDS011;7839;50.462;9.678;2022-09-13T22:41:48;1.80;;;1.67;;
15474;SDS011;7839;50.462;9.678;2022-09-13T22:48:28;2.08;;;1.73;;
15474;SDS011;7839;50.462;9.678;2022-09-13T22:55:09;2.17;;;1.90;;
15474;SDS011;7839;50.462;9.678;2022-09-13T23:01:49;2.08;;;1.88;;
15474;SDS011;7839;50.462;9.678;2022-09-13T23:08:29;1.85;;;1.65;;
15474;SDS011;7839;50.462;9.678;2022-09-13T23:15:10;3.45;;;2.00;;
15474;SDS011;7839;50.462;9.678;2022-09-13T23:21:51;1.70;;;1.60;;
15474;SDS011;7839;50.462;9.678;2022-09-13T23:28:32;2.10;;;1.90;;
15474;SDS011;7839;50.462;9.678;2022-09-13T23:35:12;2.00;;;1.80;;
15474;SDS011;7839;50.462;9.678;2022-09-13T23:41:52;2.20;;;1.83;;
15474;SDS011;7839;50.462;9.678;2022-09-13T23:48:33;1.73;;;1.63;;
15474;SDS011;7839;50.462;9.678;2022-09-13T23:55:14;1.80;;;1.70;;
